createdAt,value
2022-09-21T00:02:27.799Z,3.30
2022-09-21T00:05:01.781Z,3.55
2022-09-21T00:07:35.788Z,3.13
2022-09-21T00:10:02.828Z,3.00
2022-09-21T00:12:37.736Z,3.53
2022-09-21T00:15:10.009Z,3.05
2022-09-21T00:17:43.732Z,3.22
2022-09-21T00:20:10.938Z,2.55
2022-09-21T00:22:44.752Z,3.13
2022-09-21T00:25:18.820Z,4.35
2022-09-21T00:27:48.693Z,3.28
2022-09-21T00:30:28.739Z,3.50
2022-09-21T00:33:02.737Z,3.97
2022-09-21T00:35:37.868Z,4.30
2022-09-21T00:38:11.753Z,3.67
2022-09-21T00:40:44.744Z,3.60
2022-09-21T00:43:22.832Z,5.82
2022-09-21T00:46:07.894Z,3.35
2022-09-21T00:48:36.019Z,3.72
2022-09-21T00:51:14.782Z,3.42
2022-09-21T00:53:41.908Z,3.78
2022-09-21T00:56:17.778Z,4.22
2022-09-21T00:58:48.706Z,3.60
2022-09-21T01:01:22.909Z,3.20
2022-09-21T01:03:52.375Z,3.47
2022-09-21T01:06:27.842Z,3.72
2022-09-21T01:08:59.326Z,3.40
2022-09-21T01:11:40.815Z,3.30
2022-09-21T01:14:25.846Z,3.53
2022-09-21T01:16:59.880Z,3.55
2022-09-21T01:19:54.280Z,3.63
2022-09-21T01:23:04.835Z,3.85
2022-09-21T01:25:50.952Z,4.13
2022-09-21T01:28:55.929Z,2.90
2022-09-21T01:31:34.918Z,4.00
2022-09-21T01:34:17.427Z,3.22
2022-09-21T01:36:54.903Z,4.45
2022-09-21T01:39:36.891Z,4.28
2022-09-21T01:42:07.551Z,4.72
2022-09-21T01:44:44.904Z,3.30
2022-09-21T01:47:13.345Z,3.63
2022-09-21T01:50:00.123Z,3.38
2022-09-21T01:52:50.513Z,4.60
2022-09-21T01:55:32.953Z,3.67
2022-09-21T01:58:17.938Z,4.90
2022-09-21T02:00:49.004Z,3.42
2022-09-21T02:03:41.951Z,3.72
2022-09-21T02:06:10.382Z,2.97
2022-09-21T02:08:44.887Z,2.78
2022-09-21T02:11:14.007Z,3.10
2022-09-21T02:13:52.884Z,5.25
2022-09-21T02:16:20.456Z,3.85
2022-09-21T02:19:19.871Z,3.30
2022-09-21T02:21:58.858Z,3.17
2022-09-21T02:24:44.900Z,3.75
2022-09-21T02:27:49.889Z,3.17
2022-09-21T02:30:27.890Z,4.07
2022-09-21T02:33:06.312Z,3.30
2022-09-21T02:36:01.901Z,3.63
2022-09-21T02:38:49.541Z,3.25
2022-09-21T02:41:30.925Z,3.70
2022-09-21T02:44:07.773Z,3.13
2022-09-21T02:46:43.909Z,3.25
2022-09-21T02:49:42.708Z,3.92
2022-09-21T02:52:23.958Z,3.40
2022-09-21T02:54:59.952Z,3.17
2022-09-21T02:57:27.103Z,3.00
2022-09-21T02:59:59.925Z,3.70
2022-09-21T03:02:46.955Z,4.93
2022-09-21T03:05:14.915Z,3.60
2022-09-21T03:07:48.965Z,3.47
2022-09-21T03:10:21.976Z,3.58
2022-09-21T03:12:48.682Z,3.35
2022-09-21T03:15:23.925Z,4.00
2022-09-21T03:17:56.943Z,3.58
2022-09-21T03:20:23.695Z,3.80
2022-09-21T03:22:56.985Z,4.20
2022-09-21T03:25:29.994Z,3.90
2022-09-21T03:28:04.953Z,3.22
2022-09-21T03:30:32.120Z,3.20
2022-09-21T03:33:04.974Z,3.42
2022-09-21T03:35:33.866Z,4.18
2022-09-21T03:38:08.028Z,3.75
2022-09-21T03:40:42.006Z,3.42
2022-09-21T03:43:14.978Z,3.47
2022-09-21T03:45:49.024Z,4.90
2022-09-21T03:48:23.014Z,4.28
2022-09-21T03:50:57.089Z,4.95
2022-09-21T03:53:30.034Z,4.57
2022-09-21T03:55:57.725Z,4.10
2022-09-21T03:58:31.093Z,4.28
2022-09-21T04:01:09.158Z,4.75
2022-09-21T04:03:35.953Z,4.78
2022-09-21T04:06:19.048Z,4.40
2022-09-21T04:08:45.846Z,3.20
2022-09-21T04:11:22.035Z,3.28
2022-09-21T04:13:56.752Z,4.00
2022-09-21T04:16:34.044Z,3.78
2022-09-21T04:19:00.837Z,4.07
2022-09-21T04:21:27.700Z,3.63
2022-09-21T04:24:01.050Z,4.38
2022-09-21T04:26:33.498Z,4.40
2022-09-21T04:31:41.042Z,3.53
2022-09-21T04:34:18.114Z,4.28
2022-09-21T04:36:45.924Z,4.03
2022-09-21T04:39:19.107Z,3.88
2022-09-21T04:41:46.006Z,4.57
2022-09-21T04:44:19.114Z,3.72
2022-09-21T04:46:45.992Z,3.83
2022-09-21T04:49:19.128Z,3.67
2022-09-21T04:51:46.076Z,3.95
2022-09-21T04:54:19.097Z,3.75
2022-09-21T04:56:45.809Z,4.70
2022-09-21T04:59:19.095Z,3.67
2022-09-21T05:01:45.871Z,5.38
2022-09-21T05:04:19.236Z,3.85
2022-09-21T05:06:52.387Z,3.60
2022-09-21T05:09:44.103Z,4.25
2022-09-21T05:12:12.881Z,4.18
2022-09-21T05:14:47.094Z,3.80
2022-09-21T05:17:20.165Z,4.38
2022-09-21T05:19:46.994Z,4.82
2022-09-21T05:22:13.810Z,5.25
2022-09-21T05:24:47.159Z,4.10
2022-09-21T05:27:14.627Z,4.32
2022-09-21T05:29:48.154Z,4.50
2022-09-21T05:32:23.637Z,5.32
2022-09-21T05:35:23.204Z,4.05
2022-09-21T05:37:56.767Z,5.45
2022-09-21T05:40:30.256Z,5.18
2022-09-21T05:43:04.210Z,4.47
2022-09-21T05:45:38.281Z,5.05
2022-09-21T05:48:21.877Z,5.47
2022-09-21T05:51:08.223Z,6.25
2022-09-21T05:54:22.555Z,4.72
2022-09-21T05:57:09.223Z,4.47
2022-09-21T05:59:49.242Z,5.20
2022-09-21T06:02:48.191Z,5.15
2022-09-21T06:05:22.221Z,4.68
2022-09-21T06:07:55.209Z,4.20
2022-09-21T06:10:24.184Z,5.13
2022-09-21T06:12:57.224Z,5.72
2022-09-21T06:15:30.310Z,4.93
2022-09-21T06:18:05.418Z,4.40
2022-09-21T06:20:32.353Z,5.13
2022-09-21T06:23:13.249Z,4.50
2022-09-21T06:25:47.281Z,4.07
2022-09-21T06:28:14.306Z,4.57
2022-09-21T06:30:49.276Z,5.25
2022-09-21T06:33:27.310Z,5.20
2022-09-21T06:36:06.456Z,4.15
2022-09-21T06:38:35.279Z,6.10
2022-09-21T06:41:10.279Z,4.53
2022-09-21T06:43:43.318Z,5.07
2022-09-21T06:46:16.344Z,4.95
2022-09-21T06:48:49.290Z,4.35
2022-09-21T06:51:23.285Z,4.97
2022-09-21T06:53:55.102Z,4.70
2022-09-21T06:56:28.272Z,5.38
2022-09-21T06:58:55.402Z,4.43
2022-09-21T07:01:28.406Z,5.03
2022-09-21T07:03:55.270Z,3.75
2022-09-21T07:06:22.274Z,4.15
2022-09-21T07:11:46.547Z,4.35
2022-09-21T07:14:21.335Z,4.72
2022-09-21T07:16:48.101Z,4.18
2022-09-21T07:19:15.281Z,4.10
2022-09-21T07:21:48.334Z,4.00
2022-09-21T07:24:21.365Z,3.78
2022-09-21T07:26:49.311Z,4.25
2022-09-21T07:29:22.361Z,3.95
2022-09-21T07:31:49.134Z,4.38
2022-09-21T07:34:22.525Z,3.88
2022-09-21T07:36:49.298Z,3.83
2022-09-21T07:39:29.370Z,3.20
2022-09-21T07:42:05.357Z,2.53
2022-09-21T07:44:33.028Z,2.72
2022-09-21T07:47:07.400Z,3.13
2022-09-21T07:49:35.085Z,2.15
2022-09-21T07:52:11.007Z,2.25
2022-09-21T07:54:44.586Z,1.70
2022-09-21T07:57:30.082Z,1.92
2022-09-21T08:00:04.407Z,1.85
2022-09-21T08:02:37.532Z,2.70
2022-09-21T08:05:04.785Z,1.92
2022-09-21T08:07:38.405Z,2.15
2022-09-21T08:10:05.550Z,1.55
2022-09-21T08:12:44.476Z,2.33
2022-09-21T08:15:30.597Z,1.65
2022-09-21T08:18:05.414Z,1.85
2022-09-21T08:20:32.379Z,1.58
2022-09-21T08:23:06.469Z,2.75
2022-09-21T08:25:34.363Z,1.75
2022-09-21T08:28:09.827Z,1.98
2022-09-21T08:30:43.451Z,1.05
2022-09-21T08:33:10.481Z,0.98
2022-09-21T08:35:43.484Z,1.08
2022-09-21T08:38:16.460Z,1.40
2022-09-21T08:40:43.439Z,0.88
2022-09-21T08:43:20.475Z,0.90
2022-09-21T08:45:47.293Z,1.02
2022-09-21T08:48:34.394Z,0.57
2022-09-21T08:51:08.167Z,1.83
2022-09-21T08:53:44.450Z,1.15
2022-09-21T08:56:16.204Z,2.13
2022-09-21T08:58:53.475Z,1.00
2022-09-21T09:01:20.394Z,1.15
2022-09-21T09:04:05.956Z,0.80
2022-09-21T09:06:47.750Z,1.38
2022-09-21T09:09:58.495Z,1.20
2022-09-21T09:12:34.177Z,0.80
2022-09-21T09:15:16.588Z,1.40
2022-09-21T09:18:31.554Z,0.98
2022-09-21T09:21:03.960Z,1.73
2022-09-21T09:23:49.506Z,1.30
2022-09-21T09:26:34.175Z,1.20
2022-09-21T09:29:23.560Z,1.45
2022-09-21T09:31:54.756Z,1.05
2022-09-21T09:34:31.584Z,1.42
2022-09-21T09:37:10.113Z,0.50
2022-09-21T09:39:44.556Z,1.15
2022-09-21T09:42:43.556Z,2.22
2022-09-21T09:45:41.599Z,1.35
2022-09-21T09:48:34.052Z,1.98
2022-09-21T09:51:07.561Z,1.73
2022-09-21T09:53:36.143Z,1.50
2022-09-21T09:56:09.591Z,1.23
2022-09-21T09:59:08.229Z,0.55
2022-09-21T10:01:50.647Z,0.57
2022-09-21T10:06:51.668Z,3.72
2022-09-21T10:09:24.791Z,2.05
2022-09-21T10:12:01.668Z,2.40
2022-09-21T10:14:34.585Z,1.65
2022-09-21T10:17:14.602Z,1.23
2022-09-21T10:19:41.446Z,0.85
2022-09-21T10:22:26.605Z,1.05
2022-09-21T10:24:54.767Z,1.48
2022-09-21T10:27:37.669Z,1.42
2022-09-21T10:30:04.965Z,1.50
2022-09-21T10:32:38.693Z,6.38
2022-09-21T10:35:06.113Z,2.58
2022-09-21T10:37:49.669Z,2.28
2022-09-21T10:40:22.714Z,1.23
2022-09-21T10:43:01.669Z,1.48
2022-09-21T10:45:37.229Z,0.95
2022-09-21T10:48:31.747Z,1.00
2022-09-21T10:51:05.697Z,0.95
2022-09-21T10:53:42.660Z,1.65
2022-09-21T10:56:20.413Z,1.50
2022-09-21T10:59:35.658Z,2.35
2022-09-21T11:02:32.728Z,1.58
2022-09-21T11:05:21.666Z,2.03
2022-09-21T11:08:01.690Z,1.80
2022-09-21T11:11:02.757Z,1.52
2022-09-21T11:14:00.723Z,1.20
2022-09-21T11:16:41.302Z,0.90
2022-09-21T11:19:27.753Z,1.52
2022-09-21T11:22:24.418Z,0.90
2022-09-21T11:25:24.751Z,0.82
2022-09-21T11:28:07.278Z,0.88
2022-09-21T11:31:14.829Z,1.25
2022-09-21T11:34:15.710Z,2.78
2022-09-21T11:37:26.616Z,2.65
2022-09-21T11:40:05.772Z,2.13
2022-09-21T11:43:10.234Z,1.63
2022-09-21T11:45:55.865Z,1.88
2022-09-21T11:48:47.134Z,2.53
2022-09-21T11:51:45.750Z,1.88
2022-09-21T11:54:43.783Z,1.58
2022-09-21T11:57:35.788Z,1.60
2022-09-21T12:00:38.769Z,2.22
2022-09-21T12:03:36.560Z,1.88
2022-09-21T12:06:53.786Z,0.80
2022-09-21T12:09:29.780Z,0.93
2022-09-21T12:12:40.741Z,1.38
2022-09-21T12:15:38.791Z,3.03
2022-09-21T12:18:15.895Z,1.20
2022-09-21T12:20:53.775Z,2.10
2022-09-21T12:23:34.773Z,1.23
2022-09-21T12:26:10.788Z,1.70
2022-09-21T12:28:51.825Z,1.20
2022-09-21T12:31:36.853Z,1.00
2022-09-21T12:34:19.805Z,0.73
2022-09-21T12:37:19.890Z,0.68
2022-09-21T12:39:50.075Z,0.85
2022-09-21T12:42:52.091Z,0.65
2022-09-21T12:45:28.286Z,0.87
2022-09-21T12:48:13.893Z,0.45
2022-09-21T12:50:51.027Z,0.93
2022-09-21T12:53:31.844Z,1.65
2022-09-21T12:56:23.564Z,1.60
2022-09-21T12:59:08.963Z,0.47
2022-09-21T13:01:35.815Z,0.60
2022-09-21T13:04:34.871Z,1.23
2022-09-21T13:07:23.052Z,2.20
2022-09-21T13:09:57.914Z,2.75
2022-09-21T13:12:38.110Z,2.13
2022-09-21T13:15:28.907Z,1.38
2022-09-21T13:18:06.801Z,1.65
2022-09-21T13:20:44.947Z,1.38
2022-09-21T13:23:22.629Z,0.55
2022-09-21T13:26:10.941Z,0.95
2022-09-21T13:29:03.470Z,0.65
2022-09-21T13:31:47.938Z,0.93
2022-09-21T13:34:30.909Z,0.82
2022-09-21T13:37:16.827Z,0.63
2022-09-21T13:39:51.913Z,0.50
2022-09-21T13:42:34.371Z,0.70
2022-09-21T13:45:26.038Z,1.38
2022-09-21T13:48:03.000Z,1.77
2022-09-21T13:50:50.964Z,1.27
2022-09-21T13:53:32.935Z,2.22
2022-09-21T13:56:27.979Z,1.30
2022-09-21T13:58:57.866Z,2.08
2022-09-21T14:01:47.954Z,1.25
2022-09-21T14:04:27.072Z,1.25
2022-09-21T14:07:02.045Z,0.73
2022-09-21T14:09:34.907Z,1.42
2022-09-21T14:12:12.957Z,0.85
2022-09-21T14:14:41.634Z,0.68
2022-09-21T14:17:40.998Z,0.82
2022-09-21T14:20:37.117Z,1.10
2022-09-21T14:23:21.022Z,0.70
2022-09-21T14:28:24.005Z,0.75
2022-09-21T14:30:56.345Z,0.75
2022-09-21T14:33:37.044Z,0.70
2022-09-21T14:36:08.937Z,0.68
2022-09-21T14:38:54.359Z,0.57
2022-09-21T14:41:24.322Z,1.15
2022-09-21T14:44:01.088Z,0.80
2022-09-21T14:46:36.890Z,1.27
2022-09-21T14:49:37.028Z,1.55
2022-09-21T14:52:31.848Z,0.80
2022-09-21T14:55:31.090Z,0.98
2022-09-21T14:58:22.209Z,0.40
2022-09-21T15:00:56.140Z,1.30
2022-09-21T15:03:30.566Z,0.50
2022-09-21T15:06:52.149Z,1.60
2022-09-21T15:10:31.082Z,0.57
2022-09-21T15:13:22.703Z,0.30
2022-09-21T15:16:05.129Z,0.38
2022-09-21T15:18:35.289Z,0.32
2022-09-21T15:21:10.179Z,0.30
2022-09-21T15:23:40.739Z,0.15
2022-09-21T15:26:28.139Z,0.47
2022-09-21T15:29:09.983Z,0.40
2022-09-21T15:34:15.081Z,0.20
2022-09-21T15:36:50.130Z,0.77
2022-09-21T15:39:24.920Z,0.35
2022-09-21T15:42:16.145Z,0.40
2022-09-21T15:44:46.492Z,0.35
2022-09-21T15:47:20.126Z,0.70
2022-09-21T15:49:47.033Z,0.77
2022-09-21T15:52:44.153Z,0.88
2022-09-21T15:55:28.216Z,0.90
2022-09-21T15:57:58.866Z,0.60
2022-09-21T16:00:38.233Z,0.40
2022-09-21T16:03:20.120Z,0.82
2022-09-21T16:05:57.136Z,0.40
2022-09-21T16:08:36.097Z,0.57
2022-09-21T16:11:36.339Z,0.50
2022-09-21T16:14:27.774Z,0.28
2022-09-21T16:17:16.177Z,1.75
2022-09-21T16:20:08.909Z,0.70
2022-09-21T16:22:54.171Z,0.90
2022-09-21T16:25:32.619Z,0.57
2022-09-21T16:28:33.214Z,0.30
2022-09-21T16:31:00.333Z,0.28
2022-09-21T16:33:55.218Z,0.60
2022-09-21T16:36:38.245Z,0.30
2022-09-21T16:39:15.026Z,0.40
2022-09-21T16:41:55.211Z,0.57
2022-09-21T16:44:25.620Z,0.28
2022-09-21T16:47:10.195Z,0.47
2022-09-21T16:49:37.320Z,0.98
2022-09-21T16:52:10.236Z,0.17
2022-09-21T16:54:44.248Z,0.82
2022-09-21T16:57:12.460Z,0.35
2022-09-21T16:59:46.327Z,2.65
2022-09-21T17:02:14.523Z,1.05
2022-09-21T17:04:48.298Z,0.80
2022-09-21T17:07:16.926Z,2.45
2022-09-21T17:09:47.549Z,7.15
2022-09-21T17:12:24.328Z,8.00
2022-09-21T17:14:59.291Z,7.88
2022-09-21T17:17:26.731Z,6.85
2022-09-21T17:20:00.271Z,6.18
2022-09-21T17:22:35.254Z,5.57
2022-09-21T17:25:08.277Z,4.65
2022-09-21T17:27:35.166Z,4.32
2022-09-21T17:30:10.262Z,3.83
2022-09-21T17:32:38.964Z,3.50
2022-09-21T17:35:37.302Z,4.53
2022-09-21T17:38:14.492Z,2.88
2022-09-21T17:40:49.382Z,2.55
2022-09-21T17:43:55.290Z,3.00
2022-09-21T17:46:40.617Z,2.28
2022-09-21T17:49:17.281Z,3.03
2022-09-21T17:52:05.789Z,2.33
2022-09-21T17:54:46.306Z,3.33
2022-09-21T17:57:47.340Z,2.85
2022-09-21T18:00:26.298Z,2.95
2022-09-21T18:02:54.158Z,3.95
2022-09-21T18:05:36.330Z,3.90
2022-09-21T18:08:03.816Z,3.83
2022-09-21T18:10:37.355Z,3.50
2022-09-21T18:13:42.325Z,2.88
2022-09-21T18:16:31.281Z,3.40
2022-09-21T18:19:26.380Z,3.10
2022-09-21T18:21:59.719Z,4.78
2022-09-21T18:24:38.424Z,3.55
2022-09-21T18:27:05.634Z,2.97
2022-09-21T18:29:41.611Z,3.78
2022-09-21T18:32:42.288Z,3.85
2022-09-21T18:35:28.421Z,3.65
2022-09-21T18:37:55.231Z,3.97
2022-09-21T18:40:59.541Z,3.53
2022-09-21T18:43:39.234Z,3.80
2022-09-21T18:46:51.466Z,3.78
2022-09-21T18:49:43.174Z,2.93
2022-09-21T18:52:42.499Z,4.20
2022-09-21T18:55:27.236Z,3.88
2022-09-21T18:58:02.483Z,3.08
2022-09-21T19:00:35.038Z,4.22
2022-09-21T19:03:19.134Z,3.58
2022-09-21T19:05:53.877Z,3.47
2022-09-21T19:08:35.741Z,2.97
2022-09-21T19:11:21.067Z,2.83
2022-09-21T19:14:22.440Z,3.65
2022-09-21T19:17:30.580Z,4.13
2022-09-21T19:20:28.036Z,4.00
2022-09-21T19:23:13.520Z,4.68
2022-09-21T19:25:49.769Z,4.97
2022-09-21T19:28:43.453Z,4.28
2022-09-21T19:31:13.035Z,4.82
2022-09-21T19:33:55.711Z,5.50
2022-09-21T19:36:30.480Z,6.47
2022-09-21T19:38:57.382Z,9.65
2022-09-21T19:41:24.121Z,8.95
2022-09-21T19:44:22.571Z,9.45
2022-09-21T19:47:22.905Z,10.98
2022-09-21T19:50:00.605Z,11.63
2022-09-21T19:52:34.344Z,16.45
2022-09-21T19:55:27.500Z,18.45
2022-09-21T19:58:13.030Z,17.85
2022-09-21T20:00:47.635Z,19.60
2022-09-21T20:03:21.732Z,18.80
2022-09-21T20:06:24.556Z,16.88
2022-09-21T20:09:21.609Z,15.43
2022-09-21T20:11:56.583Z,15.73
2022-09-21T20:14:37.829Z,14.77
2022-09-21T20:17:10.560Z,15.73
2022-09-21T20:20:15.612Z,14.13
2022-09-21T20:22:42.669Z,15.80
2022-09-21T20:25:09.675Z,12.88
2022-09-21T20:27:51.713Z,12.32
2022-09-21T20:30:25.065Z,13.32
2022-09-21T20:33:04.667Z,12.15
2022-09-21T20:35:31.649Z,14.70
2022-09-21T20:38:02.253Z,12.75
2022-09-21T20:40:37.802Z,12.02
2022-09-21T20:43:11.804Z,14.50
2022-09-21T20:45:40.702Z,14.90
2022-09-21T20:48:21.663Z,14.15
2022-09-21T20:50:50.391Z,14.18
2022-09-21T20:53:19.218Z,15.13
2022-09-21T20:56:00.667Z,14.95
2022-09-21T20:58:28.042Z,15.40
2022-09-21T21:01:01.756Z,15.60
2022-09-21T21:03:28.604Z,16.10
2022-09-21T21:06:24.609Z,15.38
2022-09-21T21:08:51.427Z,15.43
2022-09-21T21:11:26.732Z,16.00
2022-09-21T21:13:56.534Z,16.25
2022-09-21T21:16:23.814Z,12.77
2022-09-21T21:18:57.612Z,14.98
2022-09-21T21:21:31.689Z,13.27
2022-09-21T21:24:21.726Z,13.32
2022-09-21T21:27:03.041Z,14.05
2022-09-21T21:29:31.172Z,14.63
2022-09-21T21:32:05.731Z,14.45
2022-09-21T21:34:33.078Z,13.48
2022-09-21T21:37:06.634Z,12.68
2022-09-21T21:39:40.731Z,12.88
2022-09-21T21:42:07.723Z,11.57
2022-09-21T21:44:34.604Z,10.95
2022-09-21T21:47:37.641Z,13.27
2022-09-21T21:49:56.366Z,12.68
2022-09-21T21:52:29.775Z,14.00
2022-09-21T21:54:56.493Z,12.65
2022-09-21T21:57:23.294Z,13.35
2022-09-21T21:59:56.694Z,13.63
2022-09-21T22:02:24.287Z,14.40
2022-09-21T22:04:51.085Z,14.52
2022-09-21T22:07:24.660Z,13.88
2022-09-21T22:09:52.416Z,12.15
2022-09-21T22:12:25.768Z,13.18
2022-09-21T22:14:52.476Z,14.82
2022-09-21T22:17:19.305Z,12.85
2022-09-21T22:19:52.801Z,13.07
2022-09-21T22:22:22.687Z,12.30
2022-09-21T22:24:49.474Z,14.07
2022-09-21T22:27:22.694Z,13.13
2022-09-21T22:29:55.702Z,13.57
2022-09-21T22:32:22.660Z,12.50
2022-09-21T22:34:56.792Z,11.15
2022-09-21T22:37:23.501Z,11.70
2022-09-21T22:39:56.721Z,13.35
2022-09-21T22:42:34.705Z,12.43
2022-09-21T22:45:01.444Z,11.88
2022-09-21T22:47:34.759Z,13.07
2022-09-21T22:50:07.777Z,11.43
2022-09-21T22:52:34.521Z,11.07
2022-09-21T22:55:07.720Z,11.10
2022-09-21T22:57:40.781Z,11.77
2022-09-21T23:00:14.906Z,11.00
2022-09-21T23:02:51.762Z,10.20
2022-09-21T23:05:18.488Z,10.27
2022-09-21T23:07:51.775Z,9.35
2022-09-21T23:10:26.867Z,9.75
2022-09-21T23:13:00.764Z,10.20
2022-09-21T23:15:33.762Z,10.63
2022-09-21T23:18:00.474Z,8.95
2022-09-21T23:20:33.842Z,9.13
2022-09-21T23:23:07.850Z,9.68
2022-09-21T23:25:41.837Z,10.52
2022-09-21T23:28:08.564Z,8.52
2022-09-21T23:30:42.839Z,8.38
2022-09-21T23:33:09.597Z,8.18
2022-09-21T23:35:47.832Z,8.02
2022-09-21T23:38:20.826Z,7.45
2022-09-21T23:40:53.818Z,9.15
2022-09-21T23:43:26.882Z,7.10
2022-09-21T23:46:00.838Z,7.80
2022-09-21T23:48:34.875Z,7.25
2022-09-21T23:51:07.852Z,7.97
2022-09-21T23:53:44.849Z,7.47
2022-09-21T23:56:22.869Z,7.25
2022-09-21T23:58:56.859Z,7.78
